createdAt,value
2022-09-26T00:00:08.171Z,95.90
2022-09-26T00:00:17.647Z,95.60
2022-09-26T00:00:27.060Z,95.40
2022-09-26T00:00:36.467Z,95.30
2022-09-26T00:00:45.851Z,95.10
2022-09-26T00:00:55.342Z,94.90
2022-09-26T00:01:04.796Z,94.80
2022-09-26T00:01:14.180Z,94.70
2022-09-26T00:01:23.647Z,94.50
2022-09-26T00:01:33.005Z,94.40
2022-09-26T00:01:42.420Z,94.30
2022-09-26T00:01:51.813Z,94.10
2022-09-26T00:02:01.208Z,93.90
2022-09-26T00:02:20.067Z,93.60
2022-09-26T00:02:29.488Z,93.40
2022-09-26T00:02:38.903Z,93.20
2022-09-26T00:02:48.288Z,93.10
2022-09-26T00:02:57.715Z,92.90
2022-09-26T00:03:07.066Z,92.80
2022-09-26T00:03:16.504Z,92.70
2022-09-26T00:03:25.919Z,92.60
2022-09-26T00:03:35.346Z,92.50
2022-09-26T00:03:44.748Z,92.40
2022-09-26T00:03:54.148Z,92.30
2022-09-26T00:04:03.566Z,92.20
2022-09-26T00:04:13.148Z,92.10
2022-09-26T00:04:24.102Z,91.90
2022-09-26T00:04:33.086Z,91.80
2022-09-26T00:04:41.429Z,91.70
2022-09-26T00:05:00.256Z,91.50
2022-09-26T00:05:09.786Z,91.40
2022-09-26T00:05:19.209Z,91.30
2022-09-26T00:05:28.624Z,91.30
2022-09-26T00:05:38.059Z,91.20
2022-09-26T00:05:47.470Z,91.10
2022-09-26T00:05:56.865Z,90.90
2022-09-26T00:06:06.270Z,90.90
2022-09-26T00:06:15.667Z,90.80
2022-09-26T00:06:25.122Z,90.80
2022-09-26T00:06:34.529Z,90.70
2022-09-26T00:06:43.948Z,90.70
2022-09-26T00:06:53.347Z,90.60
2022-09-26T00:07:02.758Z,90.60
2022-09-26T00:07:12.169Z,90.50
2022-09-26T00:07:21.642Z,90.40
2022-09-26T00:07:31.052Z,90.30
2022-09-26T00:07:49.855Z,90.20
2022-09-26T00:07:59.280Z,90.10
2022-09-26T00:08:08.692Z,90.00
2022-09-26T00:08:18.094Z,90.00
2022-09-26T00:08:27.514Z,90.00
2022-09-26T00:08:36.887Z,89.80
2022-09-26T00:08:46.299Z,89.80
2022-09-26T00:08:55.724Z,89.70
2022-09-26T00:09:05.121Z,89.50
2022-09-26T00:09:14.618Z,89.50
2022-09-26T00:09:24.019Z,89.40
2022-09-26T00:09:33.424Z,89.30
2022-09-26T00:09:42.819Z,89.20
2022-09-26T00:09:52.992Z,89.10
2022-09-26T00:10:04.624Z,89.00
2022-09-26T00:10:14.025Z,88.90
2022-09-26T00:10:23.700Z,88.90
2022-09-26T00:10:33.133Z,88.80
2022-09-26T00:10:42.994Z,88.70
2022-09-26T00:10:52.428Z,88.60
2022-09-26T00:11:01.833Z,88.60
2022-09-26T00:11:11.294Z,88.50
2022-09-26T00:11:30.115Z,88.30
2022-09-26T00:11:39.522Z,88.20
2022-09-26T00:11:48.939Z,88.10
2022-09-26T00:11:58.346Z,88.00
2022-09-26T00:12:07.749Z,88.00
2022-09-26T00:12:17.162Z,88.00
2022-09-26T00:12:26.599Z,87.90
2022-09-26T00:12:36.016Z,87.80
2022-09-26T00:12:45.412Z,87.70
2022-09-26T00:12:54.822Z,87.70
2022-09-26T00:13:04.264Z,87.50
2022-09-26T00:13:13.658Z,87.40
2022-09-26T00:13:23.071Z,87.40
2022-09-26T00:13:32.475Z,87.40
2022-09-26T00:13:41.865Z,87.20
2022-09-26T00:13:51.323Z,87.00
2022-09-26T00:14:10.147Z,86.90
2022-09-26T00:14:19.580Z,86.80
2022-09-26T00:14:29.009Z,86.70
2022-09-26T00:14:38.428Z,86.70
2022-09-26T00:14:47.830Z,86.70
2022-09-26T00:14:57.229Z,86.60
2022-09-26T00:15:06.640Z,86.60
2022-09-26T00:15:16.070Z,86.40
2022-09-26T00:15:25.494Z,86.40
2022-09-26T00:15:34.882Z,86.30
2022-09-26T00:15:44.257Z,86.30
2022-09-26T00:15:53.689Z,86.30
2022-09-26T00:16:03.093Z,86.30
2022-09-26T00:16:12.553Z,86.40
2022-09-26T00:16:21.990Z,86.30
2022-09-26T00:16:31.394Z,86.30
2022-09-26T00:16:50.274Z,86.20
2022-09-26T00:16:59.738Z,86.10
2022-09-26T00:17:09.073Z,86.20
2022-09-26T00:17:18.439Z,86.20
2022-09-26T00:17:27.883Z,86.20
2022-09-26T00:17:37.287Z,86.10
2022-09-26T00:17:46.702Z,86.00
2022-09-26T00:17:56.127Z,85.90
2022-09-26T00:18:05.529Z,85.90
2022-09-26T00:18:14.961Z,85.80
2022-09-26T00:18:24.408Z,85.60
2022-09-26T00:18:33.812Z,85.60
2022-09-26T00:18:43.202Z,85.60
2022-09-26T00:18:52.614Z,85.50
2022-09-26T00:19:02.018Z,85.50
2022-09-26T00:19:11.480Z,85.50
2022-09-26T00:19:30.269Z,85.40
2022-09-26T00:19:39.677Z,85.40
2022-09-26T00:19:49.117Z,85.40
2022-09-26T00:19:58.531Z,85.40
2022-09-26T00:20:07.944Z,85.40
2022-09-26T00:20:17.360Z,85.40
2022-09-26T00:20:26.757Z,85.40
2022-09-26T00:20:36.166Z,85.40
2022-09-26T00:20:45.574Z,85.40
2022-09-26T00:20:54.980Z,85.40
2022-09-26T00:21:04.400Z,85.40
2022-09-26T00:21:13.822Z,85.40
2022-09-26T00:21:23.253Z,85.40
2022-09-26T00:21:32.647Z,85.30
2022-09-26T00:21:42.038Z,85.40
2022-09-26T00:21:51.477Z,85.40
2022-09-26T00:22:00.881Z,85.50
2022-09-26T00:22:19.692Z,85.50
2022-09-26T00:22:29.120Z,85.40
2022-09-26T00:22:38.541Z,85.40
2022-09-26T00:22:47.975Z,85.50
2022-09-26T00:22:57.380Z,85.50
2022-09-26T00:23:06.809Z,85.50
2022-09-26T00:23:16.206Z,85.40
2022-09-26T00:23:25.618Z,85.40
2022-09-26T00:23:35.065Z,85.30
2022-09-26T00:23:44.459Z,85.30
2022-09-26T00:23:53.858Z,85.30
2022-09-26T00:24:03.288Z,85.20
2022-09-26T00:24:12.718Z,85.10
2022-09-26T00:24:22.132Z,85.10
2022-09-26T00:24:31.566Z,85.10
2022-09-26T00:24:40.977Z,85.00
2022-09-26T00:24:59.797Z,84.90
2022-09-26T00:25:09.210Z,84.90
2022-09-26T00:25:18.614Z,84.90
2022-09-26T00:25:28.016Z,84.90
2022-09-26T00:25:37.436Z,84.90
2022-09-26T00:25:46.828Z,84.90
2022-09-26T00:25:56.234Z,85.00
2022-09-26T00:26:05.645Z,85.00
2022-09-26T00:26:15.084Z,84.90
2022-09-26T00:26:24.504Z,84.90
2022-09-26T00:26:33.920Z,84.90
2022-09-26T00:26:43.343Z,84.90
2022-09-26T00:26:52.750Z,84.80
2022-09-26T00:27:02.154Z,84.80
2022-09-26T00:27:11.581Z,84.80
2022-09-26T00:27:20.970Z,84.80
2022-09-26T00:27:39.828Z,84.70
2022-09-26T00:27:49.241Z,84.70
2022-09-26T00:27:58.640Z,84.70
2022-09-26T00:28:08.040Z,84.70
2022-09-26T00:28:17.454Z,84.70
2022-09-26T00:28:26.844Z,84.50
2022-09-26T00:28:36.254Z,84.50
2022-09-26T00:28:45.673Z,84.50
2022-09-26T00:28:55.094Z,84.40
2022-09-26T00:29:04.511Z,84.40
2022-09-26T00:29:14.199Z,84.40
2022-09-26T00:29:23.336Z,84.40
2022-09-26T00:29:32.755Z,84.40
2022-09-26T00:29:42.212Z,84.50
2022-09-26T00:29:51.597Z,84.40
2022-09-26T00:30:00.995Z,84.40
2022-09-26T00:30:19.935Z,84.40
2022-09-26T00:30:29.256Z,84.40
2022-09-26T00:30:38.697Z,84.40
2022-09-26T00:30:48.189Z,84.40
2022-09-26T00:30:57.555Z,84.30
2022-09-26T00:31:07.091Z,84.20
2022-09-26T00:31:16.413Z,84.20
2022-09-26T00:31:25.750Z,84.10
2022-09-26T00:31:35.185Z,83.90
2022-09-26T00:31:44.615Z,83.80
2022-09-26T00:31:54.029Z,83.80
2022-09-26T00:32:03.431Z,83.80
2022-09-26T00:32:12.825Z,83.80
2022-09-26T00:32:22.234Z,83.80
2022-09-26T00:32:31.884Z,83.80
2022-09-26T00:32:41.320Z,83.80
2022-09-26T00:33:00.167Z,83.70
2022-09-26T00:33:09.572Z,83.70
2022-09-26T00:33:19.004Z,83.70
2022-09-26T00:33:28.437Z,83.70
2022-09-26T00:33:37.823Z,83.70
2022-09-26T00:33:47.236Z,83.60
2022-09-26T00:33:56.635Z,83.60
2022-09-26T00:34:06.051Z,83.60
2022-09-26T00:34:15.469Z,83.50
2022-09-26T00:34:24.899Z,83.60
2022-09-26T00:34:34.300Z,83.50
2022-09-26T00:34:43.701Z,83.50
2022-09-26T00:34:53.100Z,83.50
2022-09-26T00:35:02.510Z,83.50
2022-09-26T00:35:11.920Z,83.40
2022-09-26T00:35:21.327Z,83.50
2022-09-26T00:35:40.159Z,83.40
2022-09-26T00:35:49.575Z,83.50
2022-09-26T00:35:58.970Z,83.50
2022-09-26T00:36:08.386Z,83.50
2022-09-26T00:36:17.795Z,83.50
2022-09-26T00:36:37.637Z,83.60
2022-09-26T00:36:38.496Z,83.50
2022-09-26T00:36:46.078Z,83.50
2022-09-26T00:36:55.493Z,83.50
2022-09-26T00:37:04.917Z,83.40
2022-09-26T00:37:14.336Z,83.40
2022-09-26T00:37:23.744Z,83.30
2022-09-26T00:37:33.195Z,83.30
2022-09-26T00:37:42.597Z,83.20
2022-09-26T00:37:51.989Z,83.30
2022-09-26T00:38:01.451Z,83.30
2022-09-26T00:38:10.873Z,83.20
2022-09-26T00:38:29.708Z,83.20
2022-09-26T00:38:39.110Z,83.20
2022-09-26T00:38:48.493Z,83.20
2022-09-26T00:38:57.907Z,83.20
2022-09-26T00:39:07.318Z,83.20
2022-09-26T00:39:16.786Z,83.20
2022-09-26T00:39:26.183Z,83.20
2022-09-26T00:39:35.606Z,83.20
2022-09-26T00:39:45.018Z,83.20
2022-09-26T00:39:54.422Z,83.20
2022-09-26T00:40:03.839Z,83.30
2022-09-26T00:40:13.343Z,83.20
2022-09-26T00:40:22.744Z,83.20
2022-09-26T00:40:32.238Z,83.20
2022-09-26T00:40:41.702Z,83.10
2022-09-26T00:40:51.220Z,83.10
2022-09-26T00:41:09.936Z,82.90
2022-09-26T00:41:19.350Z,82.90
2022-09-26T00:41:28.756Z,82.80
2022-09-26T00:41:38.243Z,82.80
2022-09-26T00:41:47.589Z,82.80
2022-09-26T00:41:56.994Z,82.80
2022-09-26T00:42:06.397Z,82.90
2022-09-26T00:42:15.818Z,82.90
2022-09-26T00:42:25.237Z,82.90
2022-09-26T00:42:34.679Z,82.90
2022-09-26T00:42:44.096Z,83.00
2022-09-26T00:42:53.499Z,83.10
2022-09-26T00:43:02.893Z,83.00
2022-09-26T00:43:12.292Z,83.00
2022-09-26T00:43:21.711Z,82.90
2022-09-26T00:43:31.124Z,82.90
2022-09-26T00:43:49.932Z,82.90
2022-09-26T00:43:59.324Z,82.90
2022-09-26T00:44:11.626Z,82.90
2022-09-26T00:44:21.033Z,82.90
2022-09-26T00:44:30.461Z,82.90
2022-09-26T00:44:39.892Z,82.90
2022-09-26T00:44:49.309Z,82.80
2022-09-26T00:44:58.732Z,82.80
2022-09-26T00:45:08.135Z,82.80
2022-09-26T00:45:17.532Z,82.80
2022-09-26T00:45:26.941Z,82.90
2022-09-26T00:45:36.403Z,82.90
2022-09-26T00:45:45.824Z,82.90
2022-09-26T00:45:55.293Z,82.90
2022-09-26T00:46:04.686Z,82.90
2022-09-26T00:46:14.130Z,82.80
2022-09-26T00:46:23.577Z,82.70
2022-09-26T00:46:33.026Z,82.70
2022-09-26T00:46:42.360Z,82.70
2022-09-26T00:46:51.801Z,82.60
2022-09-26T00:47:01.226Z,82.70
2022-09-26T00:47:20.051Z,82.60
2022-09-26T00:47:29.453Z,82.60
2022-09-26T00:47:38.914Z,82.50
2022-09-26T00:47:48.311Z,82.40
2022-09-26T00:47:57.725Z,82.40
2022-09-26T00:48:07.149Z,82.50
2022-09-26T00:48:16.562Z,82.50
2022-09-26T00:48:25.976Z,82.50
2022-09-26T00:48:35.375Z,82.50
2022-09-26T00:48:44.770Z,82.40
2022-09-26T00:48:54.218Z,82.40
2022-09-26T00:49:03.625Z,82.40
2022-09-26T00:49:13.130Z,82.30
2022-09-26T00:49:22.462Z,82.30
2022-09-26T00:49:31.874Z,82.20
2022-09-26T00:49:41.331Z,82.10
2022-09-26T00:50:00.156Z,82.10
2022-09-26T00:50:09.541Z,82.20
2022-09-26T00:50:18.972Z,82.10
2022-09-26T00:50:28.380Z,82.20
2022-09-26T00:50:37.777Z,82.00
2022-09-26T00:50:47.191Z,82.20
2022-09-26T00:50:56.613Z,82.20
2022-09-26T00:51:06.026Z,82.20
2022-09-26T00:51:15.464Z,82.20
2022-09-26T00:51:24.872Z,82.20
2022-09-26T00:51:34.340Z,82.20
2022-09-26T00:51:43.750Z,82.20
2022-09-26T00:51:53.189Z,82.20
2022-09-26T00:52:02.595Z,82.20
2022-09-26T00:52:12.009Z,82.10
2022-09-26T00:52:21.433Z,82.10
2022-09-26T00:52:40.273Z,82.10
2022-09-26T00:52:49.666Z,82.10
2022-09-26T00:52:59.053Z,82.20
2022-09-26T00:53:08.482Z,82.10
2022-09-26T00:53:17.885Z,82.00
2022-09-26T00:53:27.276Z,82.00
2022-09-26T00:53:36.678Z,82.00
2022-09-26T00:53:46.115Z,82.00
2022-09-26T00:53:55.502Z,82.00
2022-09-26T00:54:04.962Z,82.00
2022-09-26T00:54:14.383Z,82.00
2022-09-26T00:54:23.826Z,82.00
2022-09-26T00:54:33.303Z,82.00
2022-09-26T00:54:42.725Z,82.00
2022-09-26T00:54:52.141Z,82.00
2022-09-26T00:55:01.542Z,81.80
2022-09-26T00:55:10.946Z,82.00
2022-09-26T00:55:29.758Z,81.90
2022-09-26T00:55:39.155Z,81.80
2022-09-26T00:55:48.546Z,81.80
2022-09-26T00:55:57.957Z,81.80
2022-09-26T00:56:07.371Z,81.80
2022-09-26T00:56:16.819Z,81.70
2022-09-26T00:56:26.217Z,81.70
2022-09-26T00:56:35.616Z,81.60
2022-09-26T00:56:45.013Z,81.60
2022-09-26T00:56:54.415Z,81.60
2022-09-26T00:57:03.803Z,81.70
2022-09-26T00:57:13.202Z,81.70
2022-09-26T00:57:22.602Z,81.70
2022-09-26T00:57:32.022Z,81.70
2022-09-26T00:57:41.476Z,81.70
2022-09-26T00:57:50.901Z,81.70
2022-09-26T00:58:09.706Z,81.70
2022-09-26T00:58:19.119Z,81.70
2022-09-26T00:58:31.477Z,81.70
2022-09-26T00:58:40.899Z,81.70
2022-09-26T00:58:50.320Z,81.70
2022-09-26T00:58:59.722Z,81.70
2022-09-26T00:59:09.240Z,81.80
2022-09-26T00:59:18.548Z,81.70
2022-09-26T00:59:27.950Z,81.70
2022-09-26T00:59:37.371Z,81.70
2022-09-26T00:59:46.798Z,81.70
2022-09-26T00:59:56.208Z,81.70
2022-09-26T01:00:05.625Z,81.70
2022-09-26T01:00:15.035Z,81.80
2022-09-26T01:00:27.271Z,81.80
2022-09-26T01:00:34.406Z,81.80
2022-09-26T01:00:43.818Z,81.80
2022-09-26T01:00:53.280Z,81.80
2022-09-26T01:01:02.884Z,81.70
2022-09-26T01:01:12.276Z,81.70
2022-09-26T01:01:21.568Z,81.70
2022-09-26T01:01:31.026Z,81.70
2022-09-26T01:01:49.832Z,81.80
2022-09-26T01:01:59.261Z,81.80
2022-09-26T01:02:08.648Z,81.80
2022-09-26T01:02:18.054Z,81.70
2022-09-26T01:02:27.442Z,81.70
2022-09-26T01:02:36.922Z,81.70
2022-09-26T01:02:46.353Z,81.60
2022-09-26T01:02:55.567Z,81.40
2022-09-26T01:03:05.004Z,81.50
2022-09-26T01:03:14.416Z,81.60
2022-09-26T01:03:23.840Z,81.40
2022-09-26T01:03:33.252Z,81.40
2022-09-26T01:03:42.661Z,81.40
2022-09-26T01:03:52.131Z,81.40
2022-09-26T01:04:01.553Z,81.40
2022-09-26T01:04:11.034Z,81.40
2022-09-26T01:04:29.887Z,81.50
2022-09-26T01:04:39.310Z,81.60
2022-09-26T01:04:48.736Z,81.70
2022-09-26T01:04:58.148Z,81.70
2022-09-26T01:05:07.561Z,81.80
2022-09-26T01:05:16.964Z,82.00
2022-09-26T01:05:26.381Z,82.10
2022-09-26T01:05:35.788Z,82.10
2022-09-26T01:05:45.227Z,82.30
2022-09-26T01:05:54.643Z,82.40
2022-09-26T01:06:04.102Z,82.50
2022-09-26T01:06:13.505Z,82.60
2022-09-26T01:06:22.929Z,82.80
2022-09-26T01:06:32.361Z,82.90
2022-09-26T01:06:41.779Z,83.10
2022-09-26T01:06:51.199Z,83.30
2022-09-26T01:07:10.043Z,83.60
2022-09-26T01:07:19.463Z,83.80
2022-09-26T01:07:28.872Z,84.00
2022-09-26T01:07:38.305Z,84.20
2022-09-26T01:07:47.740Z,84.30
2022-09-26T01:07:57.251Z,84.50
2022-09-26T01:08:06.677Z,84.70
2022-09-26T01:08:16.086Z,84.90
2022-09-26T01:08:25.500Z,85.00
2022-09-26T01:08:34.920Z,85.20
2022-09-26T01:08:44.347Z,85.30
2022-09-26T01:08:53.794Z,85.40
2022-09-26T01:09:03.179Z,85.70
2022-09-26T01:09:12.661Z,86.00
2022-09-26T01:09:22.070Z,86.10
2022-09-26T01:09:31.551Z,86.30
2022-09-26T01:09:40.972Z,86.50
2022-09-26T01:09:59.820Z,87.00
2022-09-26T01:10:09.246Z,87.20
2022-09-26T01:10:18.664Z,87.30
2022-09-26T01:10:28.113Z,87.50
2022-09-26T01:10:37.604Z,87.80
2022-09-26T01:10:47.030Z,88.00
2022-09-26T01:10:56.449Z,88.10
2022-09-26T01:11:05.882Z,88.30
2022-09-26T01:11:17.216Z,88.60
2022-09-26T01:11:24.693Z,88.70
2022-09-26T01:11:34.101Z,88.90
2022-09-26T01:11:43.528Z,89.10
2022-09-26T01:11:52.934Z,89.30
2022-09-26T01:12:02.347Z,89.50
2022-09-26T01:12:11.775Z,89.70
2022-09-26T01:12:21.239Z,89.90
2022-09-26T01:12:40.070Z,90.10
2022-09-26T01:12:50.314Z,90.10
2022-09-26T01:12:59.726Z,90.20
2022-09-26T01:13:09.166Z,90.20
2022-09-26T01:13:18.599Z,90.30
2022-09-26T01:13:28.030Z,90.40
2022-09-26T01:13:37.453Z,90.50
2022-09-26T01:13:46.881Z,90.60
2022-09-26T01:13:56.303Z,90.60
2022-09-26T01:14:05.733Z,90.70
2022-09-26T01:14:15.139Z,90.80
2022-09-26T01:14:24.558Z,90.90
2022-09-26T01:14:33.998Z,91.10
2022-09-26T01:14:43.425Z,91.20
2022-09-26T01:14:52.856Z,91.20
2022-09-26T01:15:02.313Z,91.30
2022-09-26T01:15:11.733Z,91.40
2022-09-26T01:15:21.149Z,91.50
2022-09-26T01:15:39.969Z,91.60
2022-09-26T01:15:49.421Z,91.60
2022-09-26T01:15:58.829Z,91.70
2022-09-26T01:16:08.305Z,91.80
2022-09-26T01:16:17.712Z,91.90
2022-09-26T01:16:27.212Z,92.00
2022-09-26T01:16:36.660Z,92.10
2022-09-26T01:16:46.079Z,92.20
2022-09-26T01:16:55.608Z,92.30
2022-09-26T01:17:05.026Z,92.30
2022-09-26T01:17:14.338Z,92.30
2022-09-26T01:17:23.761Z,92.40
2022-09-26T01:17:33.192Z,92.50
2022-09-26T01:17:42.603Z,92.60
2022-09-26T01:17:52.060Z,92.60
2022-09-26T01:18:01.504Z,92.70
2022-09-26T01:18:10.931Z,92.80
2022-09-26T01:18:29.754Z,92.90
2022-09-26T01:18:39.185Z,92.90
2022-09-26T01:18:48.633Z,93.00
2022-09-26T01:18:58.034Z,93.00
2022-09-26T01:19:07.465Z,93.10
2022-09-26T01:19:16.878Z,92.40
2022-09-26T01:19:26.313Z,93.20
2022-09-26T01:19:35.727Z,93.30
2022-09-26T01:19:45.143Z,93.40
2022-09-26T01:19:54.606Z,93.40
2022-09-26T01:20:04.030Z,93.60
2022-09-26T01:20:13.459Z,93.60
2022-09-26T01:20:22.865Z,93.70
2022-09-26T01:20:32.288Z,93.80
2022-09-26T01:20:41.711Z,93.90
2022-09-26T01:20:51.137Z,94.00
2022-09-26T01:21:09.967Z,94.00
2022-09-26T01:21:19.389Z,94.00
2022-09-26T01:21:28.858Z,94.10
2022-09-26T01:21:38.299Z,94.20
2022-09-26T01:21:47.717Z,94.30
2022-09-26T01:21:57.141Z,94.40
2022-09-26T01:22:06.549Z,94.50
2022-09-26T01:22:15.980Z,94.50
2022-09-26T01:22:25.397Z,94.50
2022-09-26T01:22:34.818Z,94.50
2022-09-26T01:22:44.240Z,94.60
2022-09-26T01:22:53.714Z,94.60
2022-09-26T01:23:03.146Z,94.70
2022-09-26T01:23:12.586Z,94.80
2022-09-26T01:23:22.028Z,94.80
2022-09-26T01:23:31.468Z,94.80
2022-09-26T01:23:40.874Z,94.90
2022-09-26T01:23:59.737Z,95.00
2022-09-26T01:24:09.141Z,95.00
2022-09-26T01:24:18.618Z,95.00
2022-09-26T01:24:28.046Z,95.10
2022-09-26T01:24:37.477Z,95.20
2022-09-26T01:24:46.912Z,95.20
2022-09-26T01:24:56.346Z,95.20
2022-09-26T01:25:05.748Z,95.40
2022-09-26T01:25:15.193Z,95.40
2022-09-26T01:25:24.599Z,95.40
2022-09-26T01:25:34.025Z,95.50
2022-09-26T01:25:43.487Z,95.60
2022-09-26T01:25:52.899Z,95.50
2022-09-26T01:26:02.330Z,95.50
2022-09-26T01:26:11.753Z,95.60
2022-09-26T01:26:21.167Z,95.70
2022-09-26T01:26:39.987Z,95.90
2022-09-26T01:26:49.403Z,95.90
2022-09-26T01:26:58.818Z,95.90
2022-09-26T01:27:08.229Z,95.90
2022-09-26T01:27:17.646Z,95.90
2022-09-26T01:27:27.069Z,95.90
2022-09-26T01:27:36.527Z,95.80
2022-09-26T01:27:45.947Z,95.90
2022-09-26T01:27:55.381Z,96.00
2022-09-26T01:28:04.792Z,95.90
2022-09-26T01:28:14.236Z,96.00
2022-09-26T01:28:23.644Z,96.10
2022-09-26T01:28:33.052Z,96.10
2022-09-26T01:28:42.458Z,96.20
2022-09-26T01:28:51.888Z,96.20
2022-09-26T01:29:01.350Z,96.30
2022-09-26T01:29:20.224Z,96.50
2022-09-26T01:29:29.634Z,96.50
2022-09-26T01:29:39.045Z,96.60
2022-09-26T01:29:48.464Z,96.60
2022-09-26T01:29:57.888Z,96.70
2022-09-26T01:30:07.353Z,96.70
2022-09-26T01:30:16.767Z,96.70
2022-09-26T01:30:26.277Z,96.80
2022-09-26T01:30:35.674Z,96.90
2022-09-26T01:30:45.096Z,96.90
2022-09-26T01:30:54.502Z,96.90
2022-09-26T01:31:03.969Z,96.90
2022-09-26T01:31:13.424Z,96.90
2022-09-26T01:31:22.838Z,97.00
2022-09-26T01:31:32.220Z,96.90
2022-09-26T01:31:41.657Z,96.90
2022-09-26T01:31:51.061Z,97.10
2022-09-26T01:32:09.915Z,97.10
2022-09-26T01:32:19.316Z,97.00
2022-09-26T01:32:28.760Z,97.00
2022-09-26T01:32:38.207Z,97.10
2022-09-26T01:32:47.650Z,97.10
2022-09-26T01:32:57.075Z,97.10
2022-09-26T01:33:06.491Z,97.20
2022-09-26T01:33:15.898Z,97.20
2022-09-26T01:33:25.306Z,97.10
2022-09-26T01:33:34.735Z,97.10
2022-09-26T01:33:44.156Z,97.30
2022-09-26T01:33:53.583Z,97.30
2022-09-26T01:34:03.026Z,97.20
2022-09-26T01:34:12.439Z,97.20
2022-09-26T01:34:21.868Z,97.40
2022-09-26T01:34:31.379Z,97.40
2022-09-26T01:34:50.221Z,97.40
2022-09-26T01:34:59.644Z,97.50
2022-09-26T01:35:09.058Z,97.50
2022-09-26T01:35:18.459Z,97.50
2022-09-26T01:35:27.867Z,97.50
2022-09-26T01:35:37.302Z,97.60
2022-09-26T01:35:46.723Z,97.60
2022-09-26T01:35:56.133Z,97.70
2022-09-26T01:36:05.540Z,97.70
2022-09-26T01:36:14.970Z,97.80
2022-09-26T01:36:24.387Z,97.90
2022-09-26T01:36:33.822Z,97.90
2022-09-26T01:36:43.246Z,97.80
2022-09-26T01:36:52.667Z,97.90
2022-09-26T01:37:02.068Z,97.90
2022-09-26T01:37:11.475Z,98.00
2022-09-26T01:37:20.896Z,98.00
2022-09-26T01:37:39.730Z,98.00
2022-09-26T01:37:49.172Z,98.10
2022-09-26T01:37:58.595Z,98.10
2022-09-26T01:38:08.003Z,98.10
2022-09-26T01:38:17.411Z,98.10
2022-09-26T01:38:26.821Z,98.00
2022-09-26T01:38:36.241Z,98.10
2022-09-26T01:38:45.644Z,98.10
2022-09-26T01:38:55.045Z,98.20
2022-09-26T01:39:04.489Z,98.20
2022-09-26T01:39:14.048Z,98.20
2022-09-26T01:39:23.279Z,98.20
2022-09-26T01:39:32.720Z,98.20
2022-09-26T01:39:42.136Z,98.10
2022-09-26T01:39:51.536Z,98.10
2022-09-26T01:40:00.937Z,98.20
2022-09-26T01:40:19.776Z,98.10
2022-09-26T01:40:29.236Z,98.20
2022-09-26T01:40:38.683Z,98.30
2022-09-26T01:40:48.099Z,98.40
2022-09-26T01:40:57.561Z,98.40
2022-09-26T01:41:06.914Z,98.40
2022-09-26T01:41:16.335Z,98.40
2022-09-26T01:41:25.764Z,98.40
2022-09-26T01:41:35.187Z,98.40
2022-09-26T01:41:44.666Z,98.40
2022-09-26T01:41:54.114Z,98.50
2022-09-26T01:42:03.534Z,98.40
2022-09-26T01:42:12.952Z,98.40
2022-09-26T01:42:22.370Z,98.50
2022-09-26T01:42:31.783Z,98.40
2022-09-26T01:42:41.180Z,98.50
2022-09-26T01:43:00.091Z,98.50
2022-09-26T01:43:09.481Z,98.60
2022-09-26T01:43:18.876Z,98.60
2022-09-26T01:43:28.295Z,98.60
2022-09-26T01:43:37.704Z,98.60
2022-09-26T01:43:47.122Z,98.70
2022-09-26T01:43:56.546Z,98.70
2022-09-26T01:44:05.992Z,98.70
2022-09-26T01:44:15.494Z,98.80
2022-09-26T01:44:24.945Z,98.80
2022-09-26T01:44:34.386Z,98.80
2022-09-26T01:44:43.791Z,98.80
2022-09-26T01:44:53.205Z,98.80
2022-09-26T01:45:02.615Z,98.80
2022-09-26T01:45:12.320Z,98.80
2022-09-26T01:45:21.721Z,98.80
2022-09-26T01:45:31.195Z,98.90
2022-09-26T01:45:50.099Z,99.00
2022-09-26T01:45:59.430Z,99.00
2022-09-26T01:46:08.911Z,99.10
2022-09-26T01:46:18.263Z,99.10
2022-09-26T01:46:27.687Z,99.10
2022-09-26T01:46:37.078Z,99.10
2022-09-26T01:46:46.505Z,99.10
2022-09-26T01:46:55.952Z,99.20
2022-09-26T01:47:05.386Z,99.20
2022-09-26T01:47:14.793Z,99.30
2022-09-26T01:47:24.235Z,99.30
2022-09-26T01:47:33.651Z,99.40
2022-09-26T01:47:43.064Z,99.40
2022-09-26T01:47:52.618Z,99.50
2022-09-26T01:48:02.412Z,99.50
2022-09-26T01:48:11.827Z,99.60
2022-09-26T01:48:21.253Z,99.60
2022-09-26T01:48:40.095Z,99.60
2022-09-26T01:48:49.511Z,99.50
2022-09-26T01:48:58.953Z,99.50
2022-09-26T01:49:08.444Z,99.50
2022-09-26T01:49:17.816Z,99.60
2022-09-26T01:49:27.236Z,99.50
2022-09-26T01:49:36.756Z,99.50
2022-09-26T01:49:46.248Z,99.50
2022-09-26T01:49:55.663Z,99.50
2022-09-26T01:50:05.093Z,99.50
2022-09-26T01:50:14.507Z,99.50
2022-09-26T01:50:23.932Z,99.50
2022-09-26T01:50:33.338Z,99.40
2022-09-26T01:50:42.829Z,99.40
2022-09-26T01:50:52.248Z,99.40
2022-09-26T01:51:01.671Z,99.40
2022-09-26T01:51:11.101Z,99.30
2022-09-26T01:51:29.912Z,99.50
2022-09-26T01:51:39.303Z,99.50
2022-09-26T01:51:48.752Z,99.50
2022-09-26T01:51:58.167Z,98.90
2022-09-26T01:52:07.576Z,99.50
2022-09-26T01:52:16.993Z,99.50
2022-09-26T01:52:26.407Z,99.50
2022-09-26T01:52:35.818Z,99.60
2022-09-26T01:52:45.239Z,99.60
2022-09-26T01:52:54.692Z,99.60
2022-09-26T01:53:04.113Z,99.60
2022-09-26T01:53:13.549Z,99.60
2022-09-26T01:53:22.967Z,99.60
2022-09-26T01:53:32.378Z,99.60
2022-09-26T01:53:41.787Z,99.60
2022-09-26T01:53:51.233Z,99.60
2022-09-26T01:54:10.097Z,99.60
2022-09-26T01:54:19.521Z,99.60
2022-09-26T01:54:28.959Z,99.60
2022-09-26T01:54:38.352Z,99.60
2022-09-26T01:54:47.778Z,99.60
2022-09-26T01:54:57.183Z,99.60
2022-09-26T01:55:06.584Z,99.60
2022-09-26T01:55:16.026Z,99.60
2022-09-26T01:55:25.414Z,99.50
2022-09-26T01:55:34.825Z,99.50
2022-09-26T01:55:44.235Z,99.50
2022-09-26T01:55:53.654Z,99.60
2022-09-26T01:56:03.082Z,99.60
2022-09-26T01:56:12.501Z,99.60
2022-09-26T01:56:21.904Z,99.60
2022-09-26T01:56:31.360Z,99.50
2022-09-26T01:56:50.223Z,99.60
2022-09-26T01:56:59.638Z,99.60
2022-09-26T01:57:09.056Z,99.70
2022-09-26T01:57:18.463Z,99.70
2022-09-26T01:57:27.871Z,99.60
2022-09-26T01:57:37.295Z,99.60
2022-09-26T01:57:46.704Z,99.70
2022-09-26T01:57:56.176Z,99.60
2022-09-26T01:58:05.651Z,99.60
2022-09-26T01:58:15.069Z,99.50
2022-09-26T01:58:24.492Z,99.50
2022-09-26T01:58:33.914Z,99.60
2022-09-26T01:58:43.332Z,99.50
2022-09-26T01:58:52.756Z,99.60
2022-09-26T01:59:02.173Z,99.60
2022-09-26T01:59:11.651Z,99.60
2022-09-26T01:59:21.015Z,99.60
2022-09-26T01:59:39.844Z,99.70
2022-09-26T01:59:49.259Z,99.60
2022-09-26T01:59:58.666Z,99.70
2022-09-26T02:00:08.159Z,99.60
2022-09-26T02:00:17.578Z,99.60
2022-09-26T02:00:26.997Z,99.60
2022-09-26T02:00:36.404Z,99.60
2022-09-26T02:00:45.832Z,99.60
2022-09-26T02:00:55.284Z,99.60
2022-09-26T02:01:04.735Z,99.70
2022-09-26T02:01:14.123Z,99.80
2022-09-26T02:01:23.622Z,99.80
2022-09-26T02:01:33.016Z,99.80
2022-09-26T02:01:42.520Z,99.90
2022-09-26T02:01:51.854Z,99.90
2022-09-26T02:02:01.273Z,99.90
2022-09-26T02:02:20.062Z,99.90
2022-09-26T02:02:29.550Z,99.90
2022-09-26T02:02:38.922Z,99.90
2022-09-26T02:02:48.336Z,99.90
2022-09-26T02:02:57.709Z,99.90
2022-09-26T02:03:07.160Z,99.90
2022-09-26T02:03:16.552Z,99.90
2022-09-26T02:03:25.954Z,99.90
2022-09-26T02:03:35.347Z,99.90
2022-09-26T02:03:44.775Z,99.90
2022-09-26T02:03:54.184Z,99.90
2022-09-26T02:04:03.583Z,99.90
2022-09-26T02:04:12.987Z,99.90
2022-09-26T02:04:22.395Z,99.90
2022-09-26T02:04:31.802Z,99.90
2022-09-26T02:04:41.223Z,99.90
2022-09-26T02:05:00.026Z,99.90
2022-09-26T02:05:09.444Z,99.90
2022-09-26T02:05:18.857Z,99.90
2022-09-26T02:05:28.255Z,99.90
2022-09-26T02:05:37.659Z,99.90
2022-09-26T02:05:47.067Z,99.90
2022-09-26T02:05:56.487Z,99.80
2022-09-26T02:06:05.887Z,99.70
2022-09-26T02:06:15.275Z,99.60
2022-09-26T02:06:24.690Z,99.40
2022-09-26T02:06:34.105Z,99.30
2022-09-26T02:06:43.526Z,99.10
2022-09-26T02:06:52.926Z,98.90
2022-09-26T02:07:02.329Z,98.80
2022-09-26T02:07:11.711Z,98.60
2022-09-26T02:07:21.118Z,98.40
2022-09-26T02:07:39.923Z,98.20
2022-09-26T02:07:49.343Z,98.00
2022-09-26T02:07:58.736Z,97.80
2022-09-26T02:08:08.149Z,97.60
2022-09-26T02:08:17.612Z,97.40
2022-09-26T02:08:27.028Z,97.20
2022-09-26T02:08:36.441Z,97.10
2022-09-26T02:08:45.864Z,96.80